Time;durP1;ratioP1;P1;durP2;ratioP2;P2;SDS_P1;SDS_P2;PMS_P1;PMS_P2;Temp;Humidity;BMP_temperature;BMP_pressure;BME280_temperature;BME280_humidity;BME280_pressure;Samples;Min_cycle;Max_cycle;Signal;HPM_P1;HPM_P2
2022/05/02 00:01:39;;;;;;;;;;;10.80;99.40;;;;;;4989783;28;19988;-82
2022/05/02 00:04:07;;;;;;;;;;;10.70;99.30;;;;;;4988209;28;20179;-82
2022/05/02 00:06:34;;;;;;;;;;;10.70;99.30;;;;;;4993972;28;19930;-82
2022/05/02 00:09:01;;;;;;;;;;;10.70;99.30;;;;;;4984240;28;19933;-82
2022/05/02 00:11:28;;;;;;;;;;;10.70;99.60;;;;;;4982160;28;20309;-81
2022/05/02 00:13:55;;;;;;;;;;;10.70;99.30;;;;;;4993235;28;19937;-81
2022/05/02 00:16:21;;;;;;;;;;;10.60;99.30;;;;;;4980887;28;20001;-81
2022/05/02 00:18:48;;;;;;;;;;;10.60;99.30;;;;;;4992463;28;19933;-81
2022/05/02 00:21:17;;;;;;;;;;;10.60;99.30;;;;;;4983645;28;19929;-81
2022/05/02 00:23:44;;;;;;;;;;;10.60;99.30;;;;;;4984740;28;20474;-82
2022/05/02 00:26:11;;;;;;;;;;;10.60;99.30;;;;;;4993130;28;19925;-82
2022/05/02 00:28:38;;;;;;;;;;;10.50;99.20;;;;;;4988023;28;19940;-82
2022/05/02 00:31:04;;;;;;;;;;;10.50;99.20;;;;;;4991148;28;20368;-82
2022/05/02 00:33:31;;;;;;;;;;;10.50;99.30;;;;;;4986752;28;20029;-82
2022/05/02 00:35:58;;;;;;;;;;;10.50;99.30;;;;;;4989218;28;19934;-82
2022/05/02 00:38:27;;;;;;;;;;;10.50;99.30;;;;;;4991395;28;19925;-82
2022/05/02 00:40:54;;;;;;;;;;;10.40;99.20;;;;;;4989021;28;20351;-82
2022/05/02 00:43:21;;;;;;;;;;;10.40;99.30;;;;;;4975107;28;20311;-82
2022/05/02 00:45:48;;;;;;;;;;;10.40;99.30;;;;;;4989612;28;20078;-82
2022/05/02 00:48:15;;;;;;;;;;;10.40;99.20;;;;;;4999912;22;20304;-78
2022/05/02 00:50:42;;;;;;;;;;;10.40;99.30;;;;;;4963426;28;19926;-79
2022/05/02 00:53:10;;;;;;;;;;;10.30;99.20;;;;;;4952602;28;19977;-79
2022/05/02 00:55:38;;;;;;;;;;;10.30;99.30;;;;;;4971332;28;19962;-78
2022/05/02 00:58:05;;;;;;;;;;;10.30;99.30;;;;;;4967360;28;20445;-79
2022/05/02 01:00:33;;;;;;;;;;;10.30;99.20;;;;;;4976840;28;20316;-79
2022/05/02 01:03:01;;;;;;;;;;;10.30;99.30;;;;;;4973681;28;19933;-79
2022/05/02 01:05:28;;;;;;;;;;;10.30;99.30;;;;;;4967690;28;19977;-79
2022/05/02 01:07:53;;;;;;;;;;;10.30;99.30;;;;;;4956906;28;19980;-78
2022/05/02 01:10:21;;;;;;;;;;;10.30;99.30;;;;;;4962116;28;20623;-79
2022/05/02 01:12:49;;;;;;;;;;;10.20;99.40;;;;;;4947753;28;19941;-79
2022/05/02 01:15:17;;;;;;;;;;;10.20;99.30;;;;;;4944778;28;20073;-78
2022/05/02 01:17:44;;;;;;;;;;;10.20;99.30;;;;;;4970196;28;19926;-78
2022/05/02 01:20:13;;;;;;;;;;;10.20;99.40;;;;;;4976648;28;19926;-78
2022/05/02 01:22:41;;;;;;;;;;;10.10;99.30;;;;;;4971645;28;20272;-79
2022/05/02 01:25:09;;;;;;;;;;;10.20;99.50;;;;;;4960522;28;19934;-79
2022/05/02 01:27:35;;;;;;;;;;;10.10;99.20;;;;;;4945100;28;20064;-78
2022/05/02 01:30:02;;;;;;;;;;;10.10;99.10;;;;;;4943798;28;20193;-79
2022/05/02 01:32:29;;;;;;;;;;;10.10;99.00;;;;;;4934408;28;19926;-79
2022/05/02 01:34:56;;;;;;;;;;;10.10;99.10;;;;;;4944321;28;20294;-78
2022/05/02 01:37:24;;;;;;;;;;;10.00;98.90;;;;;;4925894;28;20415;-78
2022/05/02 01:39:51;;;;;;;;;;;10.00;98.90;;;;;;4928310;28;19932;-78
2022/05/02 01:42:18;;;;;;;;;;;10.00;98.90;;;;;;4944680;28;20054;-78
2022/05/02 01:44:46;;;;;;;;;;;10.00;99.00;;;;;;4948345;28;19970;-79
2022/05/02 01:47:13;;;;;;;;;;;10.00;99.00;;;;;;4942138;28;19938;-79
2022/05/02 01:49:39;;;;;;;;;;;9.90;99.40;;;;;;4957947;28;19934;-78
2022/05/02 01:52:07;;;;;;;;;;;9.90;99.40;;;;;;4943558;28;20481;-79
2022/05/02 01:54:35;;;;;;;;;;;9.90;99.30;;;;;;4964516;28;20029;-79
2022/05/02 01:57:02;;;;;;;;;;;9.90;99.40;;;;;;4949828;28;19930;-79
2022/05/02 01:59:29;;;;;;;;;;;9.80;99.40;;;;;;4970032;28;19926;-79
2022/05/02 02:01:56;;;;;;;;;;;9.80;99.90;;;;;;4952607;28;19936;-78
2022/05/02 02:07:07;;;;;;;;;;;9.80;99.90;;;;;;4944472;28;19932;-79
2022/05/02 02:09:36;;;;;;;;;;;9.80;99.90;;;;;;4941027;28;19941;-78
2022/05/02 02:12:03;;;;;;;;;;;9.70;99.90;;;;;;4943837;28;20751;-79
2022/05/02 02:14:30;;;;;;;;;;;9.70;99.90;;;;;;4944963;28;20009;-79
2022/05/02 02:16:57;;;;;;;;;;;9.70;99.90;;;;;;4951535;28;20120;-79
2022/05/02 02:19:24;;;;;;;;;;;9.70;99.90;;;;;;4944810;28;20162;-78
2022/05/02 02:21:50;;;;;;;;;;;9.60;99.90;;;;;;4941536;28;22089;-78
2022/05/02 02:24:17;;;;;;;;;;;9.60;99.90;;;;;;4941293;28;20073;-78
2022/05/02 02:26:46;;;;;;;;;;;9.60;99.90;;;;;;4949044;28;19933;-78
2022/05/02 02:29:13;;;;;;;;;;;9.60;99.90;;;;;;4946705;28;19933;-79
2022/05/02 02:31:40;;;;;;;;;;;9.60;99.90;;;;;;4966312;28;19926;-79
2022/05/02 02:34:06;;;;;;;;;;;9.60;99.60;;;;;;4950059;28;19933;-78
2022/05/02 02:36:33;;;;;;;;;;;9.60;99.70;;;;;;4960640;28;20414;-78
2022/05/02 02:39:00;;;;;;;;;;;9.50;99.60;;;;;;4953563;28;20505;-78
2022/05/02 02:41:27;;;;;;;;;;;9.50;99.50;;;;;;4940437;28;20184;-78
2022/05/02 02:43:55;;;;;;;;;;;9.50;99.50;;;;;;4939517;28;19930;-79
2022/05/02 02:46:22;;;;;;;;;;;9.50;99.60;;;;;;4939526;28;19934;-78
2022/05/02 02:48:49;;;;;;;;;;;9.50;99.50;;;;;;4954174;28;19926;-79
2022/05/02 02:51:16;;;;;;;;;;;9.40;99.50;;;;;;4967054;28;19926;-79
2022/05/02 02:53:43;;;;;;;;;;;9.40;99.60;;;;;;4949179;28;19926;-78
2022/05/02 02:56:10;;;;;;;;;;;9.40;99.60;;;;;;4972782;28;20376;-78
2022/05/02 02:58:37;;;;;;;;;;;9.40;99.50;;;;;;4972245;28;20297;-79
2022/05/02 03:01:05;;;;;;;;;;;9.40;99.50;;;;;;4967063;28;20621;-79
2022/05/02 03:03:32;;;;;;;;;;;9.40;99.50;;;;;;4967282;28;20013;-79
2022/05/02 03:06:04;;;;;;;;;;;9.40;99.50;;;;;;4957152;28;19930;-79
2022/05/02 03:08:32;;;;;;;;;;;9.30;99.50;;;;;;4969539;28;19937;-79
2022/05/02 03:11:00;;;;;;;;;;;9.30;99.60;;;;;;4958493;28;19934;-78
2022/05/02 03:13:26;;;;;;;;;;;9.30;99.60;;;;;;4930264;28;19934;-78
2022/05/02 03:15:53;;;;;;;;;;;9.30;99.50;;;;;;4923258;28;21505;-79
2022/05/02 03:18:22;;;;;;;;;;;9.30;99.50;;;;;;4943014;28;19941;-78
2022/05/02 03:20:49;;;;;;;;;;;9.30;99.50;;;;;;4943463;28;20026;-78
2022/05/02 03:23:16;;;;;;;;;;;9.30;99.40;;;;;;4943040;28;20433;-78
2022/05/02 03:25:43;;;;;;;;;;;9.20;99.40;;;;;;4944387;28;20990;-78
2022/05/02 03:28:10;;;;;;;;;;;9.20;99.40;;;;;;4944570;28;19985;-78
2022/05/02 03:30:37;;;;;;;;;;;9.20;99.40;;;;;;4944386;28;19938;-78
2022/05/02 03:33:04;;;;;;;;;;;9.20;99.40;;;;;;4942986;28;19930;-78
2022/05/02 03:35:33;;;;;;;;;;;9.20;99.30;;;;;;4942966;28;19945;-78
2022/05/02 03:38:00;;;;;;;;;;;9.10;99.30;;;;;;4951750;28;19932;-77
2022/05/02 03:40:27;;;;;;;;;;;9.10;99.30;;;;;;4970343;28;19930;-78
2022/05/02 03:42:54;;;;;;;;;;;9.10;99.30;;;;;;4965870;28;19926;-79
2022/05/02 03:45:21;;;;;;;;;;;9.10;99.20;;;;;;4970642;28;20047;-79
2022/05/02 03:47:48;;;;;;;;;;;9.10;99.30;;;;;;4972694;28;19926;-79
2022/05/02 03:50:15;;;;;;;;;;;9.10;99.20;;;;;;4966693;28;20391;-78
2022/05/02 03:52:43;;;;;;;;;;;9.00;99.20;;;;;;4964240;28;19934;-79
2022/05/02 03:55:10;;;;;;;;;;;9.00;99.20;;;;;;4967509;28;19934;-78
2022/05/02 03:57:37;;;;;;;;;;;9.00;99.20;;;;;;4948158;28;19934;-79
2022/05/02 04:00:05;;;;;;;;;;;9.00;99.20;;;;;;4964671;28;19988;-80
2022/05/02 04:02:39;;;;;;;;;;;9.00;99.20;;;;;;4968578;28;19930;-79
2022/05/02 04:05:06;;;;;;;;;;;8.90;99.20;;;;;;4967984;28;19934;-78
2022/05/02 04:07:33;;;;;;;;;;;8.90;99.10;;;;;;4970745;28;19944;-78
2022/05/02 04:10:03;;;;;;;;;;;8.90;99.40;;;;;;4968957;28;19954;-78
2022/05/02 04:12:34;;;;;;;;;;;8.90;99.20;;;;;;4953732;28;20020;-78
2022/05/02 04:15:01;;;;;;;;;;;8.80;99.10;;;;;;4969196;28;20029;-78
2022/05/02 04:17:28;;;;;;;;;;;8.80;99.20;;;;;;4972756;28;19948;-78
2022/05/02 04:19:55;;;;;;;;;;;8.80;99.10;;;;;;4948980;28;19930;-78
2022/05/02 04:22:22;;;;;;;;;;;8.80;99.10;;;;;;4961841;28;19933;-78
2022/05/02 04:24:49;;;;;;;;;;;8.80;99.20;;;;;;4965625;28;19937;-78
2022/05/02 04:27:17;;;;;;;;;;;8.80;99.20;;;;;;4969711;28;19926;-78
2022/05/02 04:29:44;;;;;;;;;;;8.80;99.20;;;;;;4963143;28;19930;-78
2022/05/02 04:32:11;;;;;;;;;;;8.80;99.20;;;;;;4966380;28;19927;-78
2022/05/02 04:34:38;;;;;;;;;;;8.70;99.20;;;;;;4962198;28;19933;-79
2022/05/02 04:37:07;;;;;;;;;;;8.70;99.30;;;;;;4964874;28;19937;-78
2022/05/02 04:39:34;;;;;;;;;;;8.70;99.20;;;;;;4965931;28;19998;-78
2022/05/02 04:42:01;;;;;;;;;;;8.70;99.20;;;;;;4964734;28;19941;-78
2022/05/02 04:44:29;;;;;;;;;;;8.60;98.70;;;;;;4969685;28;19936;-78
2022/05/02 04:46:56;;;;;;;;;;;8.60;98.50;;;;;;4968005;28;19934;-78
2022/05/02 04:49:23;;;;;;;;;;;8.50;98.50;;;;;;4962851;28;19941;-79
2022/05/02 04:51:50;;;;;;;;;;;8.50;98.70;;;;;;4939851;28;20459;-79
2022/05/02 04:54:17;;;;;;;;;;;8.50;98.70;;;;;;4967917;28;19942;-79
2022/05/02 04:56:44;;;;;;;;;;;8.40;98.50;;;;;;4965064;28;19956;-78
2022/05/02 04:59:10;;;;;;;;;;;8.40;98.80;;;;;;4970224;28;19934;-79
2022/05/02 05:01:39;;;;;;;;;;;8.30;98.50;;;;;;4968397;28;19926;-78
2022/05/02 05:04:06;;;;;;;;;;;8.30;98.60;;;;;;4973708;28;19934;-79
2022/05/02 05:06:33;;;;;;;;;;;8.30;98.70;;;;;;4969074;28;19941;-79
2022/05/02 05:09:00;;;;;;;;;;;8.30;98.80;;;;;;4974811;28;19930;-79
2022/05/02 05:11:32;;;;;;;;;;;8.20;98.90;;;;;;4959485;28;20519;-78
2022/05/02 05:16:57;;;;;;;;;;;8.30;99.50;;;;;;4974218;28;19926;-80
2022/05/02 05:19:32;;;;;;;;;;;8.30;99.40;;;;;;4981131;28;19930;-79
2022/05/02 05:22:10;;;;;;;;;;;8.30;99.20;;;;;;4982411;28;20040;-78
2022/05/02 05:24:59;;;;;;;;;;;8.20;99.40;;;;;;4979316;28;19976;-80
2022/05/02 05:27:38;;;;;;;;;;;8.20;99.30;;;;;;4964277;28;19997;-78
2022/05/02 05:30:06;;;;;;;;;;;8.10;99.50;;;;;;4978239;28;19926;-80
2022/05/02 05:32:40;;;;;;;;;;;8.10;99.90;;;;;;4984598;28;19926;-79
2022/05/02 05:35:07;;;;;;;;;;;8.00;99.90;;;;;;4961984;28;19950;-80
2022/05/02 05:37:46;;;;;;;;;;;8.00;99.90;;;;;;4951668;28;19937;-79
2022/05/02 05:40:17;;;;;;;;;;;8.00;99.90;;;;;;4943756;28;19934;-79
2022/05/02 05:42:49;;;;;;;;;;;8.10;99.90;;;;;;4962804;28;19927;-80
2022/05/02 05:45:20;;;;;;;;;;;8.10;99.90;;;;;;4972950;28;20664;-79
2022/05/02 05:47:58;;;;;;;;;;;8.10;99.90;;;;;;4973822;28;20304;-80
2022/05/02 05:50:30;;;;;;;;;;;8.10;99.90;;;;;;4967949;28;20393;-80
2022/05/02 05:53:03;;;;;;;;;;;8.10;99.90;;;;;;4970262;28;19926;-80
2022/05/02 05:55:35;;;;;;;;;;;8.10;99.90;;;;;;4956838;28;19976;-80
2022/05/02 05:58:07;;;;;;;;;;;8.10;99.90;;;;;;4974395;28;20437;-80
2022/05/02 06:00:37;;;;;;;;;;;8.10;99.90;;;;;;4973062;28;19997;-79
2022/05/02 06:03:12;;;;;;;;;;;8.10;99.90;;;;;;4969219;28;19942;-80
2022/05/02 06:05:40;;;;;;;;;;;8.20;99.90;;;;;;4973834;28;19992;-80
2022/05/02 06:08:09;;;;;;;;;;;8.20;99.90;;;;;;4954375;28;20508;-80
2022/05/02 06:10:37;;;;;;;;;;;8.20;99.90;;;;;;4952984;28;19926;-79
2022/05/02 06:13:04;;;;;;;;;;;8.30;99.90;;;;;;4969184;28;20435;-79
2022/05/02 06:18:30;;;;;;;;;;;8.30;99.90;;;;;;4952323;28;20411;-79
2022/05/02 06:20:59;;;;;;;;;;;8.40;99.90;;;;;;4955606;28;19977;-80
2022/05/02 06:23:30;;;;;;;;;;;8.40;99.90;;;;;;4972492;28;19926;-80
2022/05/02 06:25:57;;;;;;;;;;;8.40;99.90;;;;;;4975658;28;19962;-78
2022/05/02 06:28:27;;;;;;;;;;;8.40;99.90;;;;;;4969217;28;19930;-79
2022/05/02 06:30:56;;;;;;;;;;;8.40;99.90;;;;;;4974504;28;19926;-80
2022/05/02 06:33:24;;;;;;;;;;;8.50;99.90;;;;;;4955692;28;20313;-79
2022/05/02 06:36:13;;;;;;;;;;;8.50;99.90;;;;;;4986717;28;20473;-78
2022/05/02 06:38:45;;;;;;;;;;;8.50;99.90;;;;;;4962920;28;19930;-79
2022/05/02 06:41:20;;;;;;;;;;;8.60;99.90;;;;;;4965685;28;19958;-79
2022/05/02 06:43:54;;;;;;;;;;;8.60;99.90;;;;;;4968619;28;19926;-80
2022/05/02 06:46:26;;;;;;;;;;;8.60;99.90;;;;;;4946094;28;19936;-78
2022/05/02 06:48:56;;;;;;;;;;;8.70;99.90;;;;;;4987224;23;19930;-81
2022/05/02 06:51:24;;;;;;;;;;;8.70;99.90;;;;;;5007988;28;20292;-81
2022/05/02 06:53:58;;;;;;;;;;;8.70;99.90;;;;;;5005146;28;19926;-83
2022/05/02 06:56:30;;;;;;;;;;;8.80;99.90;;;;;;4996133;28;20008;-81
2022/05/02 06:59:02;;;;;;;;;;;8.80;99.90;;;;;;5004534;28;19929;-83
2022/05/02 07:01:31;;;;;;;;;;;8.80;99.90;;;;;;5013685;28;20339;-82
2022/05/02 07:04:22;;;;;;;;;;;8.80;99.90;;;;;;5012475;28;19929;-82
2022/05/02 07:06:58;;;;;;;;;;;8.90;99.90;;;;;;5006533;28;19961;-81
2022/05/02 07:09:27;;;;;;;;;;;8.90;99.90;;;;;;4988524;28;19933;-81
2022/05/02 07:12:01;;;;;;;;;;;8.90;99.90;;;;;;5009862;28;20366;-81
2022/05/02 07:14:33;;;;;;;;;;;9.00;99.90;;;;;;5009373;28;19930;-79
2022/05/02 07:17:02;;;;;;;;;;;9.00;99.90;;;;;;4986371;28;19925;-79
2022/05/02 07:19:39;;;;;;;;;;;9.00;99.90;;;;;;5002567;28;19926;-79
2022/05/02 07:22:09;;;;;;;;;;;9.10;99.90;;;;;;5010123;28;20296;-82
2022/05/02 07:24:42;;;;;;;;;;;9.10;99.90;;;;;;5007545;28;20619;-82
2022/05/02 07:27:14;;;;;;;;;;;9.10;99.90;;;;;;5004571;28;19925;-80
2022/05/02 07:29:43;;;;;;;;;;;9.10;99.90;;;;;;4994596;28;19925;-83
2022/05/02 07:32:10;;;;;;;;;;;9.10;99.90;;;;;;5005315;28;19955;-84
2022/05/02 07:34:40;;;;;;;;;;;9.10;99.90;;;;;;5007932;28;19959;-84
2022/05/02 07:37:07;;;;;;;;;;;9.10;99.90;;;;;;5010917;28;19933;-81
2022/05/02 07:39:36;;;;;;;;;;;9.10;99.90;;;;;;5004087;28;19930;-84
2022/05/02 07:42:05;;;;;;;;;;;9.20;99.90;;;;;;5010371;28;20390;-83
2022/05/02 07:44:34;;;;;;;;;;;9.30;99.90;;;;;;5007505;28;19964;-82
2022/05/02 07:47:02;;;;;;;;;;;9.30;99.90;;;;;;5005390;28;19992;-80
2022/05/02 07:49:29;;;;;;;;;;;9.30;99.90;;;;;;5006386;28;19932;-79
2022/05/02 07:51:58;;;;;;;;;;;9.30;99.90;;;;;;5006755;28;19929;-80
2022/05/02 07:54:26;;;;;;;;;;;9.40;99.90;;;;;;5003776;28;20380;-79
2022/05/02 07:56:57;;;;;;;;;;;9.40;99.90;;;;;;4985550;28;19926;-79
2022/05/02 07:59:25;;;;;;;;;;;9.50;99.90;;;;;;5007086;28;19925;-81
2022/05/02 08:01:52;;;;;;;;;;;9.50;99.90;;;;;;5005657;28;19933;-80
2022/05/02 08:04:19;;;;;;;;;;;9.50;99.90;;;;;;5001193;28;19983;-79
2022/05/02 08:06:50;;;;;;;;;;;9.50;99.90;;;;;;5004262;28;20013;-80
2022/05/02 08:09:35;;;;;;;;;;;9.60;99.90;;;;;;5000363;28;19964;-79
2022/05/02 08:12:10;;;;;;;;;;;9.60;99.90;;;;;;5004228;28;19941;-80
2022/05/02 08:14:42;;;;;;;;;;;9.60;99.90;;;;;;5004464;28;19940;-82
2022/05/02 08:17:14;;;;;;;;;;;9.60;99.90;;;;;;5003118;28;19932;-82
2022/05/02 08:19:50;;;;;;;;;;;9.60;99.90;;;;;;4989700;28;19984;-82
2022/05/02 08:28:01;;;;;;;;;;;9.60;99.90;;;;;;5004140;28;19930;-82
2022/05/02 08:30:32;;;;;;;;;;;9.70;99.90;;;;;;5010058;28;20406;-80
2022/05/02 08:33:01;;;;;;;;;;;9.70;99.90;;;;;;5002120;28;20549;-82
2022/05/02 08:35:48;;;;;;;;;;;9.70;99.90;;;;;;5004395;28;20020;-82
2022/05/02 08:38:20;;;;;;;;;;;9.70;99.90;;;;;;5012128;28;20008;-84
2022/05/02 08:41:02;;;;;;;;;;;9.80;99.90;;;;;;5003029;28;20331;-82
2022/05/02 08:43:59;;;;;;;;;;;9.80;99.90;;;;;;4992542;28;20403;-83
2022/05/02 08:46:38;;;;;;;;;;;9.80;99.90;;;;;;4972841;28;20316;-82
2022/05/02 08:49:36;;;;;;;;;;;9.90;99.90;;;;;;4986738;28;19925;-83
2022/05/02 08:52:18;;;;;;;;;;;9.80;99.90;;;;;;5011394;28;19933;-82
2022/05/02 08:55:03;;;;;;;;;;;9.90;99.90;;;;;;5009823;28;19925;-83
2022/05/02 08:57:51;;;;;;;;;;;9.90;99.90;;;;;;5008394;28;20395;-81
2022/05/02 09:00:25;;;;;;;;;;;10.00;99.90;;;;;;4992177;28;19972;-81
2022/05/02 09:03:13;;;;;;;;;;;9.90;99.90;;;;;;5009730;28;20387;-82
2022/05/02 09:05:45;;;;;;;;;;;10.00;99.90;;;;;;5005768;28;20532;-83
2022/05/02 09:08:30;;;;;;;;;;;10.00;99.90;;;;;;5017820;28;19929;-83
2022/05/02 09:11:07;;;;;;;;;;;10.00;99.90;;;;;;4997092;28;19941;-83
2022/05/02 09:13:54;;;;;;;;;;;10.00;99.90;;;;;;4996231;28;19997;-82
2022/05/02 09:16:49;;;;;;;;;;;10.00;99.90;;;;;;4994142;28;19993;-83
2022/05/02 09:19:40;;;;;;;;;;;10.00;99.90;;;;;;5006354;28;19973;-83
2022/05/02 09:22:30;;;;;;;;;;;10.10;99.90;;;;;;4922168;28;19956;-81
2022/05/02 09:25:05;;;;;;;;;;;10.10;99.90;;;;;;5003308;28;20777;-82
2022/05/02 09:27:48;;;;;;;;;;;10.10;99.90;;;;;;5012413;28;20048;-82
2022/05/02 09:30:34;;;;;;;;;;;10.20;99.90;;;;;;5010313;28;19933;-81
2022/05/02 09:33:05;;;;;;;;;;;10.20;99.90;;;;;;5008342;28;19934;-82
2022/05/02 09:35:33;;;;;;;;;;;10.20;99.90;;;;;;5009929;28;19944;-82
2022/05/02 09:38:00;;;;;;;;;;;10.20;99.90;;;;;;5009603;28;19938;-81
2022/05/02 09:40:36;;;;;;;;;;;10.20;99.90;;;;;;5007092;28;19925;-83
2022/05/02 09:43:13;;;;;;;;;;;10.30;99.90;;;;;;5010266;28;19933;-82
2022/05/02 09:51:58;;;;;;;;;;;10.40;99.90;;;;;;5003768;28;19944;-81
2022/05/02 09:57:21;;;;;;;;;;;10.40;99.90;;;;;;5014328;28;19922;-82
2022/05/02 10:01:06;;;;;;;;;;;10.50;99.90;;;;;;5005531;28;20462;-82
2022/05/02 10:02:38;;;;;;;;;;;10.50;99.90;;;;;;5004022;28;19988;-83
2022/05/02 10:05:06;;;;;;;;;;;10.50;99.90;;;;;;5014967;28;19926;-82
2022/05/02 10:07:37;;;;;;;;;;;10.50;99.90;;;;;;5013461;28;19933;-81
2022/05/02 10:10:04;;;;;;;;;;;10.60;99.90;;;;;;4993391;28;19965;-82
2022/05/02 10:12:40;;;;;;;;;;;10.60;99.90;;;;;;5010117;28;20105;-82
2022/05/02 10:15:17;;;;;;;;;;;10.70;99.90;;;;;;5008914;28;20388;-82
2022/05/02 10:18:15;;;;;;;;;;;10.70;99.90;;;;;;5003027;28;19933;-82
2022/05/02 10:20:51;;;;;;;;;;;10.70;99.90;;;;;;4967954;28;19926;-82
2022/05/02 10:23:30;;;;;;;;;;;10.70;99.90;;;;;;5004803;28;19936;-81
2022/05/02 10:26:01;;;;;;;;;;;10.70;99.90;;;;;;5015776;28;19960;-81
2022/05/02 10:28:37;;;;;;;;;;;10.80;99.90;;;;;;5006080;28;19977;-82
2022/05/02 10:31:05;;;;;;;;;;;10.80;99.90;;;;;;5009786;28;19933;-81
2022/05/02 10:33:43;;;;;;;;;;;10.90;99.90;;;;;;5009382;28;19932;-82
2022/05/02 10:36:10;;;;;;;;;;;10.90;99.90;;;;;;5010491;28;19925;-82
2022/05/02 10:38:45;;;;;;;;;;;10.90;99.90;;;;;;5008680;28;19937;-83
2022/05/02 10:41:15;;;;;;;;;;;10.90;99.90;;;;;;4984911;28;19944;-82
2022/05/02 10:43:46;;;;;;;;;;;11.00;99.90;;;;;;5004982;28;19932;-82
2022/05/02 10:46:13;;;;;;;;;;;11.00;99.90;;;;;;5008941;28;19929;-82
2022/05/02 10:48:43;;;;;;;;;;;11.00;99.90;;;;;;5012143;28;20011;-83
2022/05/02 10:51:13;;;;;;;;;;;11.00;99.90;;;;;;5013256;28;19932;-82
2022/05/02 10:54:07;;;;;;;;;;;11.10;99.90;;;;;;5011987;28;19932;-82
2022/05/02 10:56:36;;;;;;;;;;;11.10;99.90;;;;;;4969112;28;19979;-82
2022/05/02 10:59:06;;;;;;;;;;;11.10;99.90;;;;;;5011287;28;19940;-81
2022/05/02 11:01:48;;;;;;;;;;;11.10;99.90;;;;;;5005571;28;19951;-82
2022/05/02 11:04:21;;;;;;;;;;;11.20;99.90;;;;;;4996221;28;19940;-82
2022/05/02 11:07:00;;;;;;;;;;;11.20;99.90;;;;;;4990834;28;19933;-83
2022/05/02 11:09:31;;;;;;;;;;;11.20;99.90;;;;;;5005399;28;19926;-82
2022/05/02 11:12:01;;;;;;;;;;;11.30;99.90;;;;;;5010107;28;20371;-81
2022/05/02 11:14:36;;;;;;;;;;;11.30;99.90;;;;;;5012101;28;19926;-83
2022/05/02 11:17:10;;;;;;;;;;;11.30;99.90;;;;;;5007448;28;19964;-81
2022/05/02 11:22:27;;;;;;;;;;;11.40;99.90;;;;;;5012000;28;19921;-82
2022/05/02 11:25:01;;;;;;;;;;;11.40;99.90;;;;;;5013636;28;20008;-81
2022/05/02 11:27:37;;;;;;;;;;;11.50;99.90;;;;;;4992597;28;20028;-81
2022/05/02 11:30:06;;;;;;;;;;;11.50;99.90;;;;;;5010654;28;20348;-82
2022/05/02 11:33:02;;;;;;;;;;;11.50;99.90;;;;;;5007293;28;20002;-82
2022/05/02 11:35:30;;;;;;;;;;;11.60;99.90;;;;;;5006715;28;20015;-81
2022/05/02 11:38:02;;;;;;;;;;;11.60;99.90;;;;;;4993114;28;20005;-82
2022/05/02 11:40:33;;;;;;;;;;;11.60;99.90;;;;;;5007737;28;19934;-82
2022/05/02 11:43:00;;;;;;;;;;;11.70;99.90;;;;;;5005090;28;19929;-82
2022/05/02 11:45:34;;;;;;;;;;;11.70;99.90;;;;;;5004918;28;19933;-82
2022/05/02 11:48:07;;;;;;;;;;;11.70;99.90;;;;;;5007337;28;19934;-81
2022/05/02 11:50:41;;;;;;;;;;;11.80;99.90;;;;;;5010539;28;20299;-81
2022/05/02 11:53:09;;;;;;;;;;;11.80;99.90;;;;;;5005830;28;19969;-82
2022/05/02 11:55:37;;;;;;;;;;;11.90;99.90;;;;;;5010498;28;19983;-81
2022/05/02 11:58:07;;;;;;;;;;;11.90;99.90;;;;;;5009237;28;20020;-83
2022/05/02 12:00:37;;;;;;;;;;;11.90;99.90;;;;;;5010848;28;20367;-82
2022/05/02 12:03:08;;;;;;;;;;;11.90;99.90;;;;;;4987507;28;19941;-82
2022/05/02 12:05:37;;;;;;;;;;;12.00;99.90;;;;;;5012451;28;19937;-81
2022/05/02 12:08:06;;;;;;;;;;;12.00;99.90;;;;;;4989712;28;20015;-82
2022/05/02 12:10:35;;;;;;;;;;;12.10;99.90;;;;;;5005112;28;19934;-82
2022/05/02 12:13:03;;;;;;;;;;;12.10;99.90;;;;;;4992819;28;19952;-81
2022/05/02 12:15:30;;;;;;;;;;;12.20;99.90;;;;;;5010294;28;19964;-82
2022/05/02 12:18:03;;;;;;;;;;;12.20;99.90;;;;;;5004997;28;19935;-82
2022/05/02 12:20:31;;;;;;;;;;;12.20;99.90;;;;;;5011307;28;20324;-82
2022/05/02 12:23:00;;;;;;;;;;;12.30;99.90;;;;;;4988814;28;19937;-82
2022/05/02 12:25:29;;;;;;;;;;;12.30;99.90;;;;;;5010516;28;19941;-82
2022/05/02 12:27:57;;;;;;;;;;;12.40;99.90;;;;;;5013582;28;19925;-84
2022/05/02 12:30:25;;;;;;;;;;;12.40;99.90;;;;;;4994852;28;20280;-83
2022/05/02 12:32:53;;;;;;;;;;;12.70;99.90;;;;;;5008214;28;19926;-82
2022/05/02 12:35:22;;;;;;;;;;;12.50;99.90;;;;;;5011955;28;19956;-82
2022/05/02 12:37:50;;;;;;;;;;;12.50;99.90;;;;;;4995288;28;20350;-81
2022/05/02 12:40:18;;;;;;;;;;;12.50;99.90;;;;;;5015693;28;20458;-86
2022/05/02 12:42:47;;;;;;;;;;;12.60;99.90;;;;;;5016926;28;19987;-90
2022/05/02 12:45:18;;;;;;;;;;;12.60;99.90;;;;;;5014091;28;19926;-88
2022/05/02 12:47:48;;;;;;;;;;;12.70;99.90;;;;;;4992890;28;19984;-87
2022/05/02 12:50:17;;;;;;;;;;;12.70;99.90;;;;;;4997450;23;20016;-79
2022/05/02 12:52:45;;;;;;;;;;;;;;;;;;4964757;28;20312;-79
2022/05/02 12:55:14;;;;;;;;;;;12.80;99.90;;;;;;4968931;28;20415;-78
2022/05/02 13:00:33;;;;;;;;;;;12.90;99.90;;;;;;4980801;28;19930;-80
2022/05/02 13:03:05;;;;;;;;;;;12.90;99.90;;;;;;4981962;28;19933;-80
2022/05/02 13:05:33;;;;;;;;;;;12.90;99.90;;;;;;4991508;28;20365;-80
2022/05/02 13:08:09;;;;;;;;;;;13.00;99.90;;;;;;4987263;28;19930;-79
2022/05/02 13:10:39;;;;;;;;;;;13.00;99.90;;;;;;4991918;28;19926;-83
2022/05/02 13:13:06;;;;;;;;;;;13.10;99.90;;;;;;4984186;28;19960;-80
2022/05/02 13:15:39;;;;;;;;;;;13.10;99.90;;;;;;4984186;28;19930;-80
2022/05/02 13:18:06;;;;;;;;;;;13.10;99.90;;;;;;4986311;28;19937;-79
2022/05/02 13:20:33;;;;;;;;;;;13.20;99.90;;;;;;4983532;28;19937;-79
2022/05/02 13:23:02;;;;;;;;;;;13.20;99.90;;;;;;4983743;28;19944;-79
2022/05/02 13:25:29;;;;;;;;;;;;;;;;;;4988611;28;20178;-78
2022/05/02 13:27:58;;;;;;;;;;;13.30;99.90;;;;;;4992156;28;19973;-78
2022/05/02 13:30:25;;;;;;;;;;;13.30;99.90;;;;;;4987102;28;19976;-78
2022/05/02 13:32:57;;;;;;;;;;;13.40;99.90;;;;;;4988896;28;19926;-79
2022/05/02 13:35:26;;;;;;;;;;;13.40;99.90;;;;;;4986587;28;19949;-79
2022/05/02 13:38:02;;;;;;;;;;;13.50;99.90;;;;;;4990592;28;19996;-79
2022/05/02 13:40:43;;;;;;;;;;;13.50;99.90;;;;;;4997262;28;19957;-79
2022/05/02 13:43:13;;;;;;;;;;;13.50;99.90;;;;;;4988274;28;19952;-78
2022/05/02 13:45:44;;;;;;;;;;;13.60;99.90;;;;;;4983514;28;19926;-79
2022/05/02 13:48:14;;;;;;;;;;;13.70;99.90;;;;;;4986201;28;19934;-79
2022/05/02 13:50:42;;;;;;;;;;;13.70;99.90;;;;;;4969882;28;20005;-79
2022/05/02 13:53:18;;;;;;;;;;;13.70;99.90;;;;;;4984522;28;20012;-78
2022/05/02 13:55:51;;;;;;;;;;;13.80;99.90;;;;;;4986203;28;19925;-80
2022/05/02 13:58:30;;;;;;;;;;;13.90;99.90;;;;;;4980351;28;20651;-79
2022/05/02 14:04:03;;;;;;;;;;;14.00;99.90;;;;;;4922947;29;19923;-79
2022/05/02 14:06:40;;;;;;;;;;;14.00;99.90;;;;;;4974056;28;19977;-80
2022/05/02 14:09:09;;;;;;;;;;;14.10;99.90;;;;;;4992512;28;19925;-79
2022/05/02 14:11:38;;;;;;;;;;;14.10;99.90;;;;;;4994134;28;19926;-80
2022/05/02 14:14:08;;;;;;;;;;;14.20;99.90;;;;;;4987763;28;19972;-80
2022/05/02 14:16:38;;;;;;;;;;;14.20;99.90;;;;;;4983712;28;20024;-82
2022/05/02 14:19:08;;;;;;;;;;;14.20;99.90;;;;;;4992357;28;19926;-83
2022/05/02 14:21:44;;;;;;;;;;;14.20;99.90;;;;;;4983142;28;19942;-83
2022/05/02 14:24:11;;;;;;;;;;;14.30;99.90;;;;;;4986108;28;19937;-83
2022/05/02 14:26:38;;;;;;;;;;;14.40;99.90;;;;;;5000335;28;19932;-82
2022/05/02 14:29:09;;;;;;;;;;;14.40;99.90;;;;;;4972106;28;20321;-82
2022/05/02 14:31:38;;;;;;;;;;;14.40;99.90;;;;;;4987178;28;19926;-81
2022/05/02 14:34:06;;;;;;;;;;;14.50;99.90;;;;;;4979494;28;20030;-82
2022/05/02 14:36:35;;;;;;;;;;;14.50;99.90;;;;;;4991840;28;19973;-82
2022/05/02 14:39:03;;;;;;;;;;;14.60;99.90;;;;;;4984604;28;19940;-82
2022/05/02 14:41:30;;;;;;;;;;;14.60;99.90;;;;;;4987360;28;19965;-82
2022/05/02 14:43:57;;;;;;;;;;;14.70;99.90;;;;;;4985667;28;19933;-82
2022/05/02 14:46:24;;;;;;;;;;;14.70;99.90;;;;;;4970161;28;20017;-81
2022/05/02 14:48:53;;;;;;;;;;;14.80;99.90;;;;;;4997146;28;19929;-82
2022/05/02 14:51:25;;;;;;;;;;;14.80;99.90;;;;;;4995894;28;20281;-82
2022/05/02 14:53:56;;;;;;;;;;;14.80;99.90;;;;;;4989836;28;19930;-82
2022/05/02 14:56:26;;;;;;;;;;;14.90;99.90;;;;;;4987054;28;19936;-82
2022/05/02 14:58:54;;;;;;;;;;;14.90;99.90;;;;;;4969191;28;19941;-82
2022/05/02 15:01:22;;;;;;;;;;;15.00;99.90;;;;;;4991392;28;20699;-83
2022/05/02 15:03:55;;;;;;;;;;;15.10;99.90;;;;;;4987779;28;19933;-83
2022/05/02 15:06:25;;;;;;;;;;;15.20;99.90;;;;;;4989285;28;19930;-83
2022/05/02 15:09:06;;;;;;;;;;;15.20;99.90;;;;;;4992946;28;20399;-83
2022/05/02 15:11:39;;;;;;;;;;;15.20;99.90;;;;;;4987757;28;19930;-83
2022/05/02 15:14:17;;;;;;;;;;;15.20;99.90;;;;;;4989676;28;19995;-82
2022/05/02 15:16:52;;;;;;;;;;;15.30;99.90;;;;;;4989041;28;19925;-83